Time;durP1;ratioP1;P1;durP2;ratioP2;P2;SDS_P1;SDS_P2;PMS_P1;PMS_P2;Temp;Humidity;BMP_temperature;BMP_pressure;BME280_temperature;BME280_humidity;BME280_pressure;Samples;Min_cycle;Max_cycle;Signal;HPM_P1;HPM_P2
2023/04/19 00:02:19;;;;;;;4.87;4.17;;;;;;;;;;5074942;28;20228;-85
2023/04/19 00:04:49;;;;;;;8.53;6.83;;;;;;;;;;5075131;28;20197;-85
2023/04/19 00:07:19;;;;;;;6.47;5.40;;;;;;;;;;5074641;28;20219;-86
2023/04/19 00:09:47;;;;;;;12.07;9.67;;;;;;;;;;5074794;28;20203;-85
2023/04/19 00:12:16;;;;;;;5.07;3.53;;;;;;;;;;5075084;28;20200;-85
2023/04/19 00:14:44;;;;;;;4.93;4.47;;;;;;;;;;5075014;28;20216;-85
2023/04/19 00:17:12;;;;;;;10.33;7.47;;;;;;;;;;5074215;28;20262;-86
2023/04/19 00:19:41;;;;;;;9.03;8.10;;;;;;;;;;5074465;28;20249;-85
2023/04/19 00:22:11;;;;;;;8.20;6.07;;;;;;;;;;5074605;28;20204;-85
2023/04/19 00:24:40;;;;;;;7.17;5.13;;;;;;;;;;5074700;28;20199;-85
2023/04/19 00:27:08;;;;;;;5.20;4.47;;;;;;;;;;5074689;28;20323;-85
2023/04/19 00:29:37;;;;;;;6.43;5.77;;;;;;;;;;5074663;28;20293;-85
2023/04/19 00:32:05;;;;;;;4.43;4.03;;;;;;;;;;5074482;28;20201;-85
2023/04/19 00:34:34;;;;;;;4.37;3.97;;;;;;;;;;5075156;28;20235;-85
2023/04/19 00:37:03;;;;;;;10.33;6.97;;;;;;;;;;5073606;28;20265;-85
2023/04/19 00:39:35;;;;;;;6.23;4.53;;;;;;;;;;5074466;28;20212;-85
2023/04/19 00:42:04;;;;;;;7.33;6.57;;;;;;;;;;5074531;28;20203;-85
2023/04/19 00:44:32;;;;;;;10.50;6.23;;;;;;;;;;5073997;28;20217;-85
2023/04/19 00:47:01;;;;;;;7.60;4.97;;;;;;;;;;5074517;28;20246;-85
2023/04/19 00:49:30;;;;;;;4.83;4.43;;;;;;;;;;5073584;28;20251;-85
2023/04/19 00:51:58;;;;;;;6.83;5.30;;;;;;;;;;5073753;28;20256;-85
2023/04/19 00:54:27;;;;;;;7.17;5.13;;;;;;;;;;5073902;28;20290;-85
2023/04/19 00:56:57;;;;;;;7.47;5.80;;;;;;;;;;5074011;28;20215;-85
2023/04/19 00:59:25;;;;;;;3.90;3.63;;;;;;;;;;5073832;28;20243;-85
2023/04/19 01:01:54;;;;;;;13.93;9.57;;;;;;;;;;5073555;28;20298;-85
2023/04/19 01:04:24;;;;;;;5.73;4.87;;;;;;;;;;5073669;28;20213;-85
2023/04/19 01:06:52;;;;;;;12.10;9.83;;;;;;;;;;5073809;28;20307;-85
2023/04/19 01:09:21;;;;;;;13.00;9.70;;;;;;;;;;5073745;28;20230;-85
2023/04/19 01:11:49;;;;;;;6.07;5.47;;;;;;;;;;5073684;28;20208;-85
2023/04/19 01:14:19;;;;;;;8.63;7.30;;;;;;;;;;5073768;28;20200;-85
2023/04/19 01:16:48;;;;;;;11.33;6.20;;;;;;;;;;5073172;28;20188;-85
2023/04/19 01:19:17;;;;;;;7.30;6.60;;;;;;;;;;5072819;28;20200;-85
2023/04/19 01:21:46;;;;;;;8.90;5.20;;;;;;;;;;5073455;28;20249;-85
2023/04/19 01:24:16;;;;;;;4.27;3.93;;;;;;;;;;5073671;28;20230;-85
2023/04/19 01:26:44;;;;;;;14.60;10.40;;;;;;;;;;5073274;28;20277;-86
2023/04/19 01:29:14;;;;;;;3.73;3.20;;;;;;;;;;5073387;28;20294;-85
2023/04/19 01:31:47;;;;;;;9.53;8.43;;;;;;;;;;5073858;28;20207;-85
2023/04/19 01:34:16;;;;;;;7.30;6.53;;;;;;;;;;5073350;28;20220;-85
2023/04/19 01:36:45;;;;;;;2.60;2.37;;;;;;;;;;5072998;28;20207;-85
2023/04/19 01:39:13;;;;;;;16.63;8.83;;;;;;;;;;5073415;28;20201;-85
2023/04/19 01:41:43;;;;;;;12.40;8.23;;;;;;;;;;5073285;28;20203;-85
2023/04/19 01:44:12;;;;;;;15.20;10.03;;;;;;;;;;5072881;28;20262;-85
2023/04/19 01:46:41;;;;;;;12.90;8.63;;;;;;;;;;5073145;28;20203;-85
2023/04/19 01:49:10;;;;;;;3.43;3.13;;;;;;;;;;5072823;28;20231;-85
2023/04/19 01:51:38;;;;;;;10.47;8.53;;;;;;;;;;5072878;28;20301;-85
2023/04/19 01:54:07;;;;;;;5.03;3.90;;;;;;;;;;5073362;28;20310;-86
2023/04/19 01:56:35;;;;;;;8.20;6.23;;;;;;;;;;5072969;28;20260;-85
2023/04/19 01:59:05;;;;;;;9.63;8.00;;;;;;;;;;5072105;28;20265;-85
2023/04/19 02:01:33;;;;;;;7.87;6.63;;;;;;;;;;5072604;28;20208;-85
2023/04/19 02:04:02;;;;;;;8.47;6.10;;;;;;;;;;5072540;28;20227;-85
2023/04/19 02:06:31;;;;;;;4.30;4.00;;;;;;;;;;5072435;28;20253;-85
2023/04/19 02:09:00;;;;;;;10.63;9.17;;;;;;;;;;5072626;28;20202;-85
2023/04/19 02:11:29;;;;;;;7.60;6.03;;;;;;;;;;5072529;28;20207;-86
2023/04/19 02:13:58;;;;;;;10.73;8.97;;;;;;;;;;5071700;28;20227;-87
2023/04/19 02:16:27;;;;;;;11.00;8.77;;;;;;;;;;5071814;28;20248;-86
2023/04/19 02:18:56;;;;;;;4.43;3.97;;;;;;;;;;5071827;28;20222;-87
2023/04/19 02:21:24;;;;;;;11.30;7.90;;;;;;;;;;5071453;28;20231;-86
2023/04/19 02:23:53;;;;;;;16.40;13.40;;;;;;;;;;5071821;28;20249;-86
2023/04/19 02:26:23;;;;;;;16.40;12.23;;;;;;;;;;5071908;28;20235;-87
2023/04/19 02:28:51;;;;;;;18.83;16.13;;;;;;;;;;5071517;28;20223;-86
2023/04/19 02:31:20;;;;;;;11.73;9.87;;;;;;;;;;5071966;28;20204;-87
2023/04/19 02:33:50;;;;;;;18.33;13.80;;;;;;;;;;5071820;28;20208;-87
2023/04/19 02:36:18;;;;;;;5.87;5.27;;;;;;;;;;5071632;28;20228;-87
2023/04/19 02:38:47;;;;;;;13.07;11.30;;;;;;;;;;5072178;28;20244;-85
2023/04/19 02:41:15;;;;;;;8.33;7.07;;;;;;;;;;5072207;28;20231;-85
2023/04/19 02:43:44;;;;;;;9.00;8.03;;;;;;;;;;5072343;28;20251;-85
2023/04/19 02:46:12;;;;;;;12.70;9.17;;;;;;;;;;5072314;28;20231;-85
2023/04/19 02:48:41;;;;;;;15.00;11.47;;;;;;;;;;5072899;28;20234;-85
2023/04/19 02:51:15;;;;;;;11.07;9.23;;;;;;;;;;5072613;28;20201;-85
2023/04/19 02:53:43;;;;;;;8.53;7.60;;;;;;;;;;5072158;28;20200;-85
2023/04/19 02:56:12;;;;;;;7.03;6.33;;;;;;;;;;5072443;28;20215;-85
2023/04/19 02:58:40;;;;;;;12.60;10.67;;;;;;;;;;5072084;28;20231;-85
2023/04/19 03:01:11;;;;;;;12.73;9.13;;;;;;;;;;5075051;28;20211;-85
2023/04/19 03:03:40;;;;;;;13.20;9.07;;;;;;;;;;5076591;28;20205;-85
2023/04/19 03:06:08;;;;;;;11.47;10.17;;;;;;;;;;5075949;28;20264;-85
2023/04/19 03:08:38;;;;;;;13.87;10.10;;;;;;;;;;5075796;28;20200;-85
2023/04/19 03:11:07;;;;;;;13.97;11.33;;;;;;;;;;5075989;28;20230;-85
2023/04/19 03:13:35;;;;;;;17.07;11.77;;;;;;;;;;5075911;28;20204;-85
2023/04/19 03:16:05;;;;;;;14.60;10.97;;;;;;;;;;5074840;28;20196;-85
2023/04/19 03:18:36;;;;;;;14.30;11.47;;;;;;;;;;5075840;28;20208;-85
2023/04/19 03:21:08;;;;;;;8.47;7.07;;;;;;;;;;5076523;28;20285;-85
2023/04/19 03:23:36;;;;;;;12.47;9.83;;;;;;;;;;5075746;28;20204;-86
2023/04/19 03:26:06;;;;;;;15.67;12.77;;;;;;;;;;5075764;28;20289;-85
2023/04/19 03:28:35;;;;;;;11.67;8.83;;;;;;;;;;5075493;28;20279;-86
2023/04/19 03:31:04;;;;;;;7.30;6.57;;;;;;;;;;5075183;28;20303;-85
2023/04/19 03:33:32;;;;;;;13.63;10.37;;;;;;;;;;5075084;28;20204;-85
2023/04/19 03:36:01;;;;;;;9.30;8.17;;;;;;;;;;5075260;28;20199;-85
2023/04/19 03:38:29;;;;;;;8.53;6.33;;;;;;;;;;5075101;28;20231;-85
2023/04/19 03:40:58;;;;;;;7.07;6.23;;;;;;;;;;5075133;28;20200;-86
2023/04/19 03:43:27;;;;;;;14.27;10.67;;;;;;;;;;5075340;28;20204;-85
2023/04/19 03:45:56;;;;;;;15.40;7.77;;;;;;;;;;5075209;28;20231;-85
2023/04/19 03:48:24;;;;;;;5.33;4.83;;;;;;;;;;5075272;28;20230;-85
2023/04/19 03:50:52;;;;;;;9.37;8.27;;;;;;;;;;5075044;28;20235;-85
2023/04/19 03:53:21;;;;;;;12.10;9.17;;;;;;;;;;5075083;28;20231;-85
2023/04/19 03:55:49;;;;;;;7.87;5.50;;;;;;;;;;5074668;28;20226;-85
2023/04/19 03:58:18;;;;;;;8.17;6.13;;;;;;;;;;5074752;28;20204;-85
2023/04/19 04:00:48;;;;;;;6.80;6.20;;;;;;;;;;5074999;28;20196;-85
2023/04/19 04:03:16;;;;;;;11.10;7.73;;;;;;;;;;5074736;28;20294;-85
2023/04/19 04:05:45;;;;;;;10.30;6.53;;;;;;;;;;5074620;28;20208;-85
2023/04/19 04:08:14;;;;;;;6.67;5.93;;;;;;;;;;5074691;28;20201;-85
2023/04/19 04:10:42;;;;;;;9.97;7.70;;;;;;;;;;5074188;28;20195;-85
2023/04/19 04:13:10;;;;;;;10.83;8.43;;;;;;;;;;5074536;28;20200;-84
2023/04/19 04:15:39;;;;;;;7.63;6.67;;;;;;;;;;5074485;28;20195;-85
2023/04/19 04:18:09;;;;;;;9.60;6.33;;;;;;;;;;5073833;28;20197;-84
2023/04/19 04:20:37;;;;;;;11.37;6.57;;;;;;;;;;5074241;28;20204;-85
2023/04/19 04:23:06;;;;;;;7.30;5.73;;;;;;;;;;5073996;28;20200;-87
2023/04/19 04:25:36;;;;;;;7.73;6.40;;;;;;;;;;5073730;28;20298;-87
2023/04/19 04:28:04;;;;;;;8.33;6.97;;;;;;;;;;5073335;28;20310;-87
2023/04/19 04:30:33;;;;;;;6.53;5.07;;;;;;;;;;5073652;28;20268;-87
2023/04/19 04:33:02;;;;;;;5.87;4.47;;;;;;;;;;5073838;28;20214;-87
2023/04/19 04:35:32;;;;;;;5.40;4.83;;;;;;;;;;5073804;28;20252;-87
2023/04/19 04:38:02;;;;;;;7.40;4.30;;;;;;;;;;5073912;28;20206;-87
2023/04/19 04:40:45;;;;;;;5.17;4.63;;;;;;;;;;5073403;28;20200;-86
2023/04/19 04:43:13;;;;;;;6.37;4.60;;;;;;;;;;5073534;28;20272;-87
2023/04/19 04:45:43;;;;;;;6.47;3.97;;;;;;;;;;5073549;28;20308;-87
2023/04/19 04:48:11;;;;;;;6.67;4.83;;;;;;;;;;5073549;28;20203;-87
2023/04/19 04:50:41;;;;;;;5.27;4.47;;;;;;;;;;5072970;28;20240;-87
2023/04/19 04:53:11;;;;;;;8.83;4.87;;;;;;;;;;5073426;28;20207;-87
2023/04/19 04:55:40;;;;;;;17.50;6.83;;;;;;;;;;5072943;28;20215;-87
2023/04/19 04:58:09;;;;;;;4.83;4.43;;;;;;;;;;5073211;28;20339;-87
2023/04/19 05:00:37;;;;;;;5.53;4.87;;;;;;;;;;5073129;28;20254;-87
2023/04/19 05:03:06;;;;;;;4.30;2.83;;;;;;;;;;5073231;28;20200;-87
2023/04/19 05:05:35;;;;;;;2.40;2.27;;;;;;;;;;5072757;28;20215;-87
2023/04/19 05:08:05;;;;;;;6.43;4.03;;;;;;;;;;5073381;28;20264;-86
2023/04/19 05:10:34;;;;;;;6.10;5.07;;;;;;;;;;5073426;28;20206;-84
2023/04/19 05:13:02;;;;;;;6.73;4.77;;;;;;;;;;5072348;28;20204;-87
2023/04/19 05:15:31;;;;;;;5.50;4.97;;;;;;;;;;5072973;28;20202;-87
2023/04/19 05:17:59;;;;;;;5.60;3.80;;;;;;;;;;5072992;28;20211;-87
2023/04/19 05:20:30;;;;;;;6.30;4.93;;;;;;;;;;5073122;28;20252;-86
2023/04/19 05:22:59;;;;;;;3.80;3.13;;;;;;;;;;5072246;28;20199;-87
2023/04/19 05:25:31;;;;;;;5.97;5.47;;;;;;;;;;5073029;28;20241;-87
2023/04/19 05:28:02;;;;;;;4.03;3.73;;;;;;;;;;5072013;28;20246;-87
2023/04/19 05:30:33;;;;;;;5.17;4.30;;;;;;;;;;5072693;28;20200;-88
2023/04/19 05:33:02;;;;;;;7.63;4.33;;;;;;;;;;5072336;28;20205;-88
2023/04/19 05:35:30;;;;;;;5.27;4.50;;;;;;;;;;5072082;28;20208;-87
2023/04/19 05:37:58;;;;;;;7.57;5.17;;;;;;;;;;5072376;28;20203;-88
2023/04/19 05:40:29;;;;;;;5.80;5.13;;;;;;;;;;5072769;28;20203;-87
2023/04/19 05:42:57;;;;;;;7.63;4.93;;;;;;;;;;5072012;28;20259;-87
2023/04/19 05:45:26;;;;;;;8.13;6.17;;;;;;;;;;5071902;28;20215;-87
2023/04/19 05:47:55;;;;;;;5.00;4.13;;;;;;;;;;5072697;28;20261;-86
2023/04/19 05:50:23;;;;;;;7.00;5.67;;;;;;;;;;5071933;28;20227;-87
2023/04/19 05:52:52;;;;;;;7.13;5.10;;;;;;;;;;5072352;28;20201;-87
2023/04/19 05:55:20;;;;;;;6.53;4.40;;;;;;;;;;5072363;28;20277;-87
2023/04/19 05:57:50;;;;;;;7.10;5.90;;;;;;;;;;5072389;28;20204;-87
2023/04/19 06:00:19;;;;;;;7.80;5.17;;;;;;;;;;5075297;28;20222;-87
2023/04/19 06:02:47;;;;;;;8.90;6.00;;;;;;;;;;5072301;28;20233;-86
2023/04/19 06:05:16;;;;;;;3.83;3.47;;;;;;;;;;5072481;28;20208;-86
2023/04/19 06:07:44;;;;;;;6.17;5.57;;;;;;;;;;5072020;28;20203;-87
2023/04/19 06:10:22;;;;;;;7.17;5.73;;;;;;;;;;5072095;28;20246;-86
2023/04/19 06:12:53;;;;;;;7.00;6.20;;;;;;;;;;5072726;28;20203;-87
2023/04/19 06:15:22;;;;;;;8.00;6.10;;;;;;;;;;5072414;28;20197;-87
2023/04/19 06:17:50;;;;;;;6.30;5.37;;;;;;;;;;5072280;28;20273;-87
2023/04/19 06:20:19;;;;;;;6.70;5.97;;;;;;;;;;5071868;28;20208;-87
2023/04/19 06:22:47;;;;;;;6.03;4.83;;;;;;;;;;5071461;28;20211;-87
2023/04/19 06:25:15;;;;;;;7.23;6.07;;;;;;;;;;5071764;28;20196;-87
2023/04/19 06:27:44;;;;;;;6.87;5.87;;;;;;;;;;5072039;28;20295;-86
2023/04/19 06:30:14;;;;;;;6.47;5.53;;;;;;;;;;5071342;28;20227;-87
2023/04/19 06:32:42;;;;;;;6.10;5.50;;;;;;;;;;5072106;28;20250;-87
2023/04/19 06:35:11;;;;;;;5.90;5.30;;;;;;;;;;5075495;28;20296;-87
2023/04/19 06:37:39;;;;;;;5.63;4.23;;;;;;;;;;5075904;28;20204;-87
2023/04/19 06:40:08;;;;;;;5.53;4.73;;;;;;;;;;5075726;28;20208;-87
2023/04/19 06:42:37;;;;;;;7.73;5.20;;;;;;;;;;5076011;28;20242;-85
2023/04/19 06:45:08;;;;;;;5.43;4.93;;;;;;;;;;5075663;28;20222;-86
2023/04/19 06:47:41;;;;;;;6.33;5.00;;;;;;;;;;5075268;28;20274;-86
2023/04/19 06:50:10;;;;;;;7.13;4.00;;;;;;;;;;5075469;28;20333;-83
2023/04/19 06:52:39;;;;;;;4.87;4.17;;;;;;;;;;5075591;28;20227;-85
2023/04/19 06:55:14;;;;;;;4.83;3.37;;;;;;;;;;5075340;28;20210;-85
2023/04/19 06:58:00;;;;;;;8.03;5.50;;;;;;;;;;5071388;28;20193;-86
2023/04/19 07:00:57;;;;;;;8.70;4.50;;;;;;;;;;5071604;28;20271;-85
2023/04/19 07:03:58;;;;;;;6.60;5.53;;;;;;;;;;5072313;28;20218;-85
2023/04/19 07:07:01;;;;;;;5.07;4.67;;;;;;;;;;5062270;28;20236;-85
2023/04/19 07:09:52;;;;;;;6.50;6.00;;;;;;;;;;5073284;28;20214;-85
2023/04/19 07:12:45;;;;;;;5.90;5.20;;;;;;;;;;5075445;28;20201;-85
2023/04/19 07:15:20;;;;;;;4.43;4.03;;;;;;;;;;5075343;28;20215;-85
2023/04/19 07:17:51;;;;;;;6.33;5.60;;;;;;;;;;5076020;28;20199;-85
2023/04/19 07:20:22;;;;;;;5.03;3.97;;;;;;;;;;5076537;28;20233;-86
2023/04/19 07:22:57;;;;;;;7.73;6.27;;;;;;;;;;5076061;28;20192;-85
2023/04/19 07:25:26;;;;;;;4.73;3.80;;;;;;;;;;5066888;28;20237;-85
2023/04/19 07:27:55;;;;;;;5.77;4.90;;;;;;;;;;5053729;28;20230;-85
2023/04/19 07:30:46;;;;;;;;;;;;;;;;;;;;;
2023/04/19 07:33:17;;;;;;;5.17;4.23;;;;;;;;;;5071043;28;20214;-85
2023/04/19 07:35:53;;;;;;;5.27;4.40;;;;;;;;;;5066531;28;20248;-85
2023/04/19 07:38:24;;;;;;;6.13;4.47;;;;;;;;;;5067269;28;20210;-85
2023/04/19 07:40:58;;;;;;;6.30;4.13;;;;;;;;;;5070238;28;20215;-85
2023/04/19 07:43:27;;;;;;;4.47;3.93;;;;;;;;;;5069341;28;20201;-85
2023/04/19 07:45:58;;;;;;;3.87;3.50;;;;;;;;;;5065856;28;20229;-85
2023/04/19 07:48:40;;;;;;;5.40;4.83;;;;;;;;;;5065180;28;20207;-85
2023/04/19 07:51:18;;;;;;;7.07;4.47;;;;;;;;;;5066519;28;20296;-85
2023/04/19 07:53:49;;;;;;;4.70;4.23;;;;;;;;;;5067617;28;20201;-85
2023/04/19 07:56:19;;;;;;;4.53;4.00;;;;;;;;;;5069110;28;20194;-85
2023/04/19 07:58:52;;;;;;;5.67;3.60;;;;;;;;;;5068383;28;20216;-85
2023/04/19 08:01:35;;;;;;;4.30;3.60;;;;;;;;;;5070957;28;20211;-85
2023/04/19 08:04:15;;;;;;;4.67;3.07;;;;;;;;;;5063961;28;20197;-85
2023/04/19 08:06:51;;;;;;;4.77;4.20;;;;;;;;;;5064695;28;20219;-85
2023/04/19 08:09:31;;;;;;;4.00;2.93;;;;;;;;;;5068114;28;20224;-85
2023/04/19 08:12:06;;;;;;;3.87;3.47;;;;;;;;;;5064598;28;20206;-85
2023/04/19 08:14:37;;;;;;;3.37;3.03;;;;;;;;;;5071130;28;20194;-84
2023/04/19 08:17:08;;;;;;;7.30;3.17;;;;;;;;;;5073292;28;20204;-85
2023/04/19 08:19:54;;;;;;;3.10;2.80;;;;;;;;;;5065450;28;20197;-85
2023/04/19 08:22:27;;;;;;;4.90;4.17;;;;;;;;;;5065832;28;20199;-85
2023/04/19 08:24:55;;;;;;;4.03;3.53;;;;;;;;;;5068974;28;20207;-85
2023/04/19 08:27:35;;;;;;;3.37;3.03;;;;;;;;;;5064504;28;20204;-86
2023/04/19 08:30:12;;;;;;;5.13;3.17;;;;;;;;;;5068312;28;20232;-86
2023/04/19 08:33:11;;;;;;;3.53;3.23;;;;;;;;;;5056227;28;20212;-85
2023/04/19 08:38:34;;;;;;;5.37;3.53;;;;;;;;;;5061607;28;20201;-86
2023/04/19 08:41:05;;;;;;;6.17;4.30;;;;;;;;;;5057576;28;20268;-85
2023/04/19 08:44:03;;;;;;;5.70;2.97;;;;;;;;;;5059599;28;20213;-85
2023/04/19 08:49:56;;;;;;;3.80;2.33;;;;;;;;;;5049207;28;20237;-86
2023/04/19 08:52:53;;;;;;;5.23;2.90;;;;;;;;;;5068376;28;20209;-85
2023/04/19 08:55:41;;;;;;;4.33;2.37;;;;;;;;;;5043726;28;20254;-85
2023/04/19 08:58:33;;;;;;;3.87;3.53;;;;;;;;;;5072242;28;20202;-85
2023/04/19 09:01:25;;;;;;;2.10;1.97;;;;;;;;;;5053522;28;20206;-85
2023/04/19 09:04:07;;;;;;;6.63;2.40;;;;;;;;;;5068620;28;20236;-86
2023/04/19 09:07:00;;;;;;;4.53;2.77;;;;;;;;;;5072553;28;20200;-86
2023/04/19 09:09:32;;;;;;;3.93;3.00;;;;;;;;;;5072371;28;20213;-86
2023/04/19 09:12:25;;;;;;;3.50;3.20;;;;;;;;;;5056677;28;20225;-85
2023/04/19 09:15:01;;;;;;;2.53;2.33;;;;;;;;;;5052069;28;20198;-86
2023/04/19 09:17:38;;;;;;;6.80;3.07;;;;;;;;;;5052650;28;20205;-86
2023/04/19 09:20:09;;;;;;;3.13;2.67;;;;;;;;;;5052319;28;20206;-85
2023/04/19 09:23:03;;;;;;;4.30;2.33;;;;;;;;;;5052175;28;20190;-85
2023/04/19 09:25:37;;;;;;;3.27;2.97;;;;;;;;;;5066042;28;20247;-86
2023/04/19 09:28:40;;;;;;;5.37;3.40;;;;;;;;;;5072003;28;20307;-85
2023/04/19 09:31:16;;;;;;;4.80;2.90;;;;;;;;;;5072675;28;20233;-85
2023/04/19 09:33:59;;;;;;;6.37;2.90;;;;;;;;;;5068005;28;20251;-86
2023/04/19 09:36:33;;;;;;;6.30;2.73;;;;;;;;;;5067632;28;20220;-86
2023/04/19 09:39:06;;;;;;;6.67;3.60;;;;;;;;;;5072278;28;20197;-86
2023/04/19 09:41:57;;;;;;;5.40;2.57;;;;;;;;;;5070878;28;20293;-86
2023/04/19 09:44:44;;;;;;;7.73;3.23;;;;;;;;;;5072208;28;20193;-86
2023/04/19 09:47:33;;;;;;;2.90;2.60;;;;;;;;;;5071789;28;20218;-86
2023/04/19 09:50:07;;;;;;;2.97;2.77;;;;;;;;;;5072170;28;20333;-86
2023/04/19 09:52:50;;;;;;;4.47;2.63;;;;;;;;;;5071701;28;20203;-86
2023/04/19 09:55:26;;;;;;;2.40;2.03;;;;;;;;;;5070377;28;20237;-85
2023/04/19 09:58:12;;;;;;;2.53;2.30;;;;;;;;;;5051074;28;20280;-85
2023/04/19 10:00:47;;;;;;;2.40;2.07;;;;;;;;;;5064874;28;20205;-86
2023/04/19 10:03:43;;;;;;;2.07;1.97;;;;;;;;;;5070205;28;20207;-86
2023/04/19 10:06:26;;;;;;;2.20;2.00;;;;;;;;;;5070375;28;20220;-86
2023/04/19 10:09:24;;;;;;;2.10;1.90;;;;;;;;;;5007652;28;20231;-86
2023/04/19 10:12:09;;;;;;;3.67;2.40;;;;;;;;;;5009028;28;20262;-86
2023/04/19 10:15:21;;;;;;;2.63;1.87;;;;;;;;;;5009502;28;20215;-86
2023/04/19 10:18:03;;;;;;;4.53;1.90;;;;;;;;;;5001466;28;20200;-86
2023/04/19 10:20:58;;;;;;;3.33;2.97;;;;;;;;;;5005409;28;20254;-86
2023/04/19 10:23:52;;;;;;;2.37;1.63;;;;;;;;;;5002241;28;20211;-86
2023/04/19 10:26:21;;;;;;;2.43;2.23;;;;;;;;;;5009099;28;20204;-84
2023/04/19 10:28:49;;;;;;;1.57;1.47;;;;;;;;;;5004144;28;20232;-86
2023/04/19 10:31:22;;;;;;;2.20;2.00;;;;;;;;;;4995885;28;20204;-85
2023/04/19 10:33:56;;;;;;;2.47;2.27;;;;;;;;;;5004461;28;20222;-85
2023/04/19 10:36:30;;;;;;;2.13;1.93;;;;;;;;;;5004022;28;20203;-85
2023/04/19 10:39:28;;;;;;;2.40;1.93;;;;;;;;;;4993455;28;20210;-85
2023/04/19 10:41:59;;;;;;;7.57;2.80;;;;;;;;;;5005647;28;20266;-85
2023/04/19 10:44:32;;;;;;;2.27;2.07;;;;;;;;;;5001482;28;20254;-85
2023/04/19 10:47:08;;;;;;;2.43;2.23;;;;;;;;;;5046221;28;20269;-85
2023/04/19 10:49:55;;;;;;;2.17;2.00;;;;;;;;;;5062210;28;20247;-85
2023/04/19 10:52:41;;;;;;;2.57;1.90;;;;;;;;;;5063554;28;20198;-85
2023/04/19 10:55:16;;;;;;;3.93;2.63;;;;;;;;;;5067162;28;20269;-86
2023/04/19 10:58:07;;;;;;;2.27;2.13;;;;;;;;;;5072789;28;20201;-85
2023/04/19 11:00:43;;;;;;;2.33;2.13;;;;;;;;;;5072247;28;20202;-86
2023/04/19 11:03:30;;;;;;;2.70;2.20;;;;;;;;;;5065795;28;20202;-86
2023/04/19 11:06:25;;;;;;;3.57;2.53;;;;;;;;;;5064917;28;20201;-86
2023/04/19 11:09:10;;;;;;;3.47;3.07;;;;;;;;;;5070502;28;20214;-86
2023/04/19 11:11:41;;;;;;;4.00;2.37;;;;;;;;;;5071278;28;20237;-86
2023/04/19 11:14:18;;;;;;;1.77;1.67;;;;;;;;;;5052099;28;20220;-85
2023/04/19 11:16:52;;;;;;;3.83;2.83;;;;;;;;;;5054851;28;20202;-86
2023/04/19 11:19:23;;;;;;;2.87;2.60;;;;;;;;;;5066786;28;20205;-85
2023/04/19 11:22:00;;;;;;;4.03;2.60;;;;;;;;;;5067391;28;20194;-86
2023/04/19 11:24:35;;;;;;;3.73;2.77;;;;;;;;;;5063783;28;20198;-86
2023/04/19 11:27:14;;;;;;;4.73;3.00;;;;;;;;;;5074595;28;20253;-86
2023/04/19 11:29:50;;;;;;;3.50;2.70;;;;;;;;;;5075806;28;20237;-85
2023/04/19 11:32:32;;;;;;;4.70;2.70;;;;;;;;;;5075986;28;20209;-86
2023/04/19 11:35:08;;;;;;;3.73;2.90;;;;;;;;;;5075883;28;20208;-86
2023/04/19 11:37:44;;;;;;;2.97;2.63;;;;;;;;;;5075906;28;20217;-85
2023/04/19 11:40:15;;;;;;;7.13;3.20;;;;;;;;;;5075406;28;20198;-86
2023/04/19 11:42:44;;;;;;;2.80;2.60;;;;;;;;;;5073724;28;20228;-87
2023/04/19 11:45:28;;;;;;;2.60;2.40;;;;;;;;;;5074718;28;20201;-87
2023/04/19 11:48:02;;;;;;;3.00;2.27;;;;;;;;;;5074649;28;20233;-86
2023/04/19 11:50:32;;;;;;;7.10;3.00;;;;;;;;;;5074218;28;20237;-87
2023/04/19 11:53:11;;;;;;;4.20;2.70;;;;;;;;;;5074642;28;20240;-86
2023/04/19 11:55:46;;;;;;;5.33;3.13;;;;;;;;;;5074005;28;20268;-87
2023/04/19 11:58:34;;;;;;;3.50;3.20;;;;;;;;;;5072916;28;20206;-87
2023/04/19 12:01:05;;;;;;;3.40;2.70;;;;;;;;;;5071308;28;20232;-87
2023/04/19 12:03:34;;;;;;;3.63;3.20;;;;;;;;;;5073960;28;20261;-87
2023/04/19 12:06:07;;;;;;;2.43;2.20;;;;;;;;;;5074465;28;20234;-87
2023/04/19 12:08:41;;;;;;;2.80;2.60;;;;;;;;;;5072175;28;20222;-87
2023/04/19 12:11:13;;;;;;;3.63;2.23;;;;;;;;;;5066179;28;20292;-87
2023/04/19 12:13:43;;;;;;;2.87;2.57;;;;;;;;;;5065663;28;20210;-86
2023/04/19 12:16:12;;;;;;;2.43;2.23;;;;;;;;;;5068129;28;20198;-88
2023/04/19 12:18:48;;;;;;;2.70;2.50;;;;;;;;;;5070645;28;20262;-87
2023/04/19 12:21:27;;;;;;;2.27;2.07;;;;;;;;;;5070418;28;20238;-86
2023/04/19 12:24:00;;;;;;;3.17;2.77;;;;;;;;;;5073059;28;20233;-86
2023/04/19 12:26:55;;;;;;;3.33;3.07;;;;;;;;;;5071506;28;20213;-86
2023/04/19 12:29:37;;;;;;;2.53;2.33;;;;;;;;;;5072752;28;20310;-87
2023/04/19 12:32:54;;;;;;;;;;;;;;;;;;;;;
2023/04/19 12:38:48;;;;;;;6.97;3.13;;;;;;;;;;5074739;28;20278;-87
2023/04/19 12:41:36;;;;;;;2.33;2.13;;;;;;;;;;5074224;28;20195;-87
2023/04/19 12:44:20;;;;;;;1.70;1.60;;;;;;;;;;5069466;28;20286;-87
2023/04/19 13:06:02;;;;;;;2.83;2.57;;;;;;;;;;4733480;30;20228;-88
2023/04/19 13:09:10;;;;;;;;;;;;;;;;;;;;;
2023/04/19 13:18:53;;;;;;;3.37;1.90;;;;;;;;;;4842787;29;20211;-88
2023/04/19 13:22:27;;;;;;;4.60;3.50;;;;;;;;;;4839812;29;20207;-88
2023/04/19 13:27:59;;;;;;;2.70;2.10;;;;;;;;;;4902173;29;20228;-87
2023/04/19 13:30:27;;;;;;;2.33;2.13;;;;;;;;;;4938504;29;20240;-88
2023/04/19 13:33:11;;;;;;;2.67;2.43;;;;;;;;;;4950835;28;20207;-88
2023/04/19 13:36:29;;;;;;;3.90;1.93;;;;;;;;;;4973933;28;20214;-88
2023/04/19 13:39:56;;;;;;;;;;;;;;;;;;;;;
2023/04/19 13:53:42;;;;;;;4.13;2.23;;;;;;;;;;4888774;28;20216;-88
2023/04/19 13:56:25;;;;;;;4.00;1.97;;;;;;;;;;4972163;28;20205;-88
2023/04/19 13:58:53;;;;;;;1.87;1.70;;;;;;;;;;4972553;28;20223;-86
2023/04/19 14:01:22;;;;;;;2.80;2.10;;;;;;;;;;4969576;28;20211;-86
2023/04/19 14:03:51;;;;;;;1.80;1.70;;;;;;;;;;4968676;28;20222;-86
2023/04/19 14:06:20;;;;;;;2.57;1.70;;;;;;;;;;4964990;28;20209;-85
2023/04/19 14:08:50;;;;;;;1.50;1.40;;;;;;;;;;4966040;28;20220;-86
2023/04/19 14:11:22;;;;;;;1.50;1.40;;;;;;;;;;4967865;28;20234;-86
2023/04/19 14:13:50;;;;;;;1.63;1.53;;;;;;;;;;4965565;28;20314;-85
2023/04/19 14:16:19;;;;;;;1.63;1.53;;;;;;;;;;4994714;28;20229;-85
2023/04/19 14:18:48;;;;;;;1.77;1.67;;;;;;;;;;5044088;28;20208;-86
2023/04/19 14:21:16;;;;;;;1.80;1.70;;;;;;;;;;5051150;28;20246;-86
2023/04/19 14:23:45;;;;;;;2.07;1.97;;;;;;;;;;5047620;28;20196;-85
2023/04/19 14:26:15;;;;;;;1.97;1.87;;;;;;;;;;5047392;28;20215;-85
2023/04/19 14:28:44;;;;;;;2.30;1.90;;;;;;;;;;5051331;28;20294;-84
2023/04/19 14:31:12;;;;;;;2.43;1.87;;;;;;;;;;5050561;28;20215;-84
2023/04/19 14:33:41;;;;;;;2.00;1.90;;;;;;;;;;5051007;28;20212;-84
2023/04/19 14:36:09;;;;;;;4.53;2.43;;;;;;;;;;5048918;28;20224;-84
2023/04/19 14:38:38;;;;;;;5.70;2.90;;;;;;;;;;5050772;28;20200;-84
2023/04/19 14:41:06;;;;;;;3.47;2.70;;;;;;;;;;5048277;28;20206;-84
2023/04/19 14:43:37;;;;;;;2.23;2.03;;;;;;;;;;5042435;28;20211;-85
2023/04/19 14:46:14;;;;;;;2.80;2.60;;;;;;;;;;5045379;28;20265;-85
2023/04/19 14:48:49;;;;;;;2.67;1.97;;;;;;;;;;5043749;28;20221;-84
2023/04/19 14:51:20;;;;;;;3.53;2.60;;;;;;;;;;5052993;28;20243;-85
2023/04/19 14:53:53;;;;;;;2.40;1.80;;;;;;;;;;5067192;28;20215;-85
2023/04/19 14:56:21;;;;;;;4.60;3.00;;;;;;;;;;5066102;28;20212;-84
2023/04/19 14:58:54;;;;;;;2.90;2.67;;;;;;;;;;5063038;28;20198;-83
2023/04/19 15:01:23;;;;;;;4.53;2.70;;;;;;;;;;5067595;28;20271;-85
2023/04/19 15:03:53;;;;;;;3.93;2.33;;;;;;;;;;5065310;28;20240;-84
2023/04/19 15:06:22;;;;;;;4.50;2.53;;;;;;;;;;5065834;28;20263;-85
2023/04/19 15:08:56;;;;;;;4.07;3.17;;;;;;;;;;5069532;28;20227;-86
2023/04/19 15:11:25;;;;;;;4.57;2.70;;;;;;;;;;5061154;28;20222;-85
2023/04/19 15:13:58;;;;;;;7.03;3.93;;;;;;;;;;5067291;28;20206;-85
2023/04/19 15:16:27;;;;;;;2.70;2.47;;;;;;;;;;5066931;28;20275;-87
2023/04/19 15:18:57;;;;;;;3.47;2.67;;;;;;;;;;5065539;28;20234;-85
2023/04/19 15:21:28;;;;;;;3.27;2.83;;;;;;;;;;5066232;28;20200;-85
2023/04/19 15:23:56;;;;;;;2.87;2.20;;;;;;;;;;5064984;28;20204;-85
2023/04/19 15:26:28;;;;;;;5.80;3.20;;;;;;;;;;5070756;28;20234;-86
2023/04/19 15:28:59;;;;;;;5.13;3.23;;;;;;;;;;5075159;28;20206;-85
2023/04/19 15:31:28;;;;;;;4.13;3.73;;;;;;;;;;5075333;28;20222;-86
2023/04/19 15:34:07;;;;;;;5.77;3.80;;;;;;;;;;5071444;28;20233;-86
2023/04/19 15:36:36;;;;;;;3.00;2.70;;;;;;;;;;5052287;28;20212;-87
2023/04/19 15:39:04;;;;;;;4.80;3.40;;;;;;;;;;5051694;28;20259;-86
2023/04/19 15:41:35;;;;;;;2.53;2.33;;;;;;;;;;5071267;28;20276;-87
2023/04/19 15:44:05;;;;;;;6.43;3.50;;;;;;;;;;5071628;28;20213;-86
2023/04/19 15:46:36;;;;;;;4.00;3.07;;;;;;;;;;5071770;28;20226;-87
2023/04/19 15:49:04;;;;;;;6.47;3.47;;;;;;;;;;5071254;28;20210;-87
2023/04/19 15:51:37;;;;;;;3.30;3.00;;;;;;;;;;5070887;28;20261;-86
2023/04/19 15:54:05;;;;;;;4.00;3.10;;;;;;;;;;5070916;28;20192;-86
2023/04/19 15:56:34;;;;;;;5.67;3.77;;;;;;;;;;5070484;28;20218;-86
2023/04/19 15:59:05;;;;;;;5.40;3.57;;;;;;;;;;5071563;28;20205;-86
2023/04/19 16:01:35;;;;;;;4.30;3.90;;;;;;;;;;5070767;28;20192;-87
2023/04/19 16:04:03;;;;;;;4.17;3.63;;;;;;;;;;5070862;28;20252;-85
2023/04/19 16:06:32;;;;;;;3.70;3.23;;;;;;;;;;5069802;28;20213;-85
2023/04/19 16:09:01;;;;;;;4.93;4.00;;;;;;;;;;5071075;28;20241;-86
2023/04/19 16:11:29;;;;;;;4.13;2.73;;;;;;;;;;5070571;28;20603;-85
2023/04/19 16:13:58;;;;;;;5.37;3.07;;;;;;;;;;5070619;28;20203;-86